Time;durP1;ratioP1;P1;durP2;ratioP2;P2;SDS_P1;SDS_P2;PMS_P1;PMS_P2;Temp;Humidity;BMP_temperature;BMP_pressure;BME280_temperature;BME280_humidity;BME280_pressure;Samples;Min_cycle;Max_cycle;Signal;HPM_P1;HPM_P2
2023/12/17 00:01:28;;;;;;;10.30;4.53;;;2.90;99.90;;;;;;4986681;28;20188;-73
2023/12/17 00:03:54;;;;;;;12.50;5.30;;;2.90;99.90;;;;;;4978916;28;20076;-74
2023/12/17 00:06:20;;;;;;;10.27;4.28;;;2.90;99.90;;;;;;4990348;28;20137;-73
2023/12/17 00:08:46;;;;;;;6.63;3.30;;;2.90;99.90;;;;;;4993923;28;20101;-73
2023/12/17 00:11:11;;;;;;;14.77;3.83;;;2.90;99.90;;;;;;4969368;28;20122;-74
2023/12/17 00:13:37;;;;;;;5.88;3.55;;;2.90;99.90;;;;;;4993732;28;20021;-73
2023/12/17 00:16:08;;;;;;;6.95;4.10;;;2.90;99.90;;;;;;4988673;28;20018;-75
2023/12/17 00:18:34;;;;;;;8.23;4.70;;;2.90;99.90;;;;;;4991131;28;20022;-74
2023/12/17 00:21:00;;;;;;;7.07;3.10;;;2.90;99.90;;;;;;4970934;28;20043;-73
2023/12/17 00:23:26;;;;;;;8.50;4.63;;;2.90;99.90;;;;;;4971059;28;20443;-73
2023/12/17 00:25:51;;;;;;;7.75;4.30;;;2.90;99.90;;;;;;4986139;28;20505;-74
2023/12/17 00:28:17;;;;;;;6.18;3.40;;;3.00;99.90;;;;;;4974689;28;20065;-74
2023/12/17 00:30:44;;;;;;;8.98;4.38;;;3.00;99.90;;;;;;4991336;28;20160;-74
2023/12/17 00:33:11;;;;;;;8.57;4.50;;;3.10;99.90;;;;;;4987809;28;20018;-74
2023/12/17 00:35:36;;;;;;;9.75;4.93;;;3.10;99.90;;;;;;4976911;28;20027;-73
2023/12/17 00:38:02;;;;;;;6.30;3.97;;;3.00;99.90;;;;;;4984599;28;20491;-73
2023/12/17 00:40:28;;;;;;;9.88;4.00;;;3.10;99.90;;;;;;4974155;28;20049;-73
2023/12/17 00:42:54;;;;;;;7.75;3.97;;;3.00;99.90;;;;;;4967506;28;20046;-73
2023/12/17 00:45:19;;;;;;;6.57;4.18;;;3.00;99.90;;;;;;4990700;28;20034;-73
2023/12/17 00:47:45;;;;;;;14.75;3.63;;;3.00;99.90;;;;;;4991519;28;20034;-72
2023/12/17 00:50:11;;;;;;;4.80;3.42;;;2.90;99.90;;;;;;4991169;28;20040;-73
2023/12/17 00:52:36;;;;;;;6.55;3.75;;;2.90;99.90;;;;;;4992854;28;20031;-73
2023/12/17 00:55:02;;;;;;;8.63;5.38;;;2.90;99.90;;;;;;4981322;28;20058;-73
2023/12/17 00:57:28;;;;;;;6.57;3.85;;;2.90;99.90;;;;;;4994317;28;20033;-73
2023/12/17 00:59:54;;;;;;;11.60;4.43;;;2.90;99.90;;;;;;4976958;28;20023;-72
2023/12/17 01:02:20;;;;;;;13.25;5.00;;;2.90;99.90;;;;;;4993693;28;20126;-72
2023/12/17 01:04:51;;;;;;;8.18;4.22;;;2.90;99.90;;;;;;4994739;28;20689;-73
2023/12/17 01:07:19;;;;;;;7.53;4.10;;;2.90;99.90;;;;;;4978863;28;20077;-72
2023/12/17 01:09:45;;;;;;;9.90;4.03;;;2.90;99.90;;;;;;4994773;28;20043;-73
2023/12/17 01:12:10;;;;;;;8.88;3.58;;;2.90;99.90;;;;;;4995438;28;20034;-73
2023/12/17 01:14:36;;;;;;;8.88;3.88;;;2.90;99.90;;;;;;4970431;28;20030;-73
2023/12/17 01:17:03;;;;;;;10.45;4.43;;;2.90;99.90;;;;;;4995114;28;20036;-74
2023/12/17 01:19:32;;;;;;;22.80;4.00;;;2.90;99.90;;;;;;4994498;28;20145;-74
2023/12/17 01:21:59;;;;;;;6.00;3.80;;;2.90;99.90;;;;;;4989684;28;20034;-73
2023/12/17 01:24:25;;;;;;;8.20;4.97;;;2.90;99.90;;;;;;4994056;28;20034;-73
2023/12/17 01:26:50;;;;;;;7.28;3.85;;;2.90;99.90;;;;;;4990447;28;20557;-74
2023/12/17 01:29:16;;;;;;;6.38;3.78;;;2.90;99.90;;;;;;4976666;28;20043;-73
2023/12/17 01:31:42;;;;;;;6.68;4.25;;;2.90;99.90;;;;;;4993416;28;20449;-73
2023/12/17 01:34:08;;;;;;;9.10;4.95;;;2.90;99.90;;;;;;4975334;28;20534;-73
2023/12/17 01:36:33;;;;;;;6.97;4.20;;;2.90;99.90;;;;;;4993368;28;20026;-73
2023/12/17 01:38:59;;;;;;;9.68;3.33;;;3.00;99.90;;;;;;4972094;28;20066;-73
2023/12/17 01:41:25;;;;;;;7.45;3.28;;;2.90;99.90;;;;;;4994271;28;20026;-73
2023/12/17 01:43:51;;;;;;;9.90;4.78;;;2.90;99.90;;;;;;4994214;28;20065;-72
2023/12/17 01:46:18;;;;;;;12.07;5.55;;;2.90;99.90;;;;;;4994503;28;20479;-74
2023/12/17 01:48:44;;;;;;;10.38;4.20;;;2.90;99.90;;;;;;4993305;28;20117;-74
2023/12/17 01:51:10;;;;;;;8.65;4.20;;;2.90;99.90;;;;;;4984970;28;20364;-73
2023/12/17 01:53:36;;;;;;;9.98;4.03;;;2.90;99.90;;;;;;4992115;28;20502;-73
2023/12/17 01:56:02;;;;;;;6.28;3.63;;;2.90;99.90;;;;;;4973703;28;20542;-73
2023/12/17 01:58:29;;;;;;;6.97;3.65;;;2.90;99.90;;;;;;4992549;28;20026;-74
2023/12/17 02:00:56;;;;;;;10.95;4.15;;;3.00;99.90;;;;;;4980855;28;20034;-73
2023/12/17 02:03:22;;;;;;;13.25;4.57;;;3.00;99.90;;;;;;4974317;28;20027;-74
2023/12/17 02:05:47;;;;;;;6.63;2.70;;;3.10;99.90;;;;;;4958399;28;20034;-73
2023/12/17 02:08:13;;;;;;;8.52;3.90;;;3.10;99.90;;;;;;4981251;28;20038;-73
2023/12/17 02:10:39;;;;;;;7.90;4.43;;;3.10;99.90;;;;;;4994056;28;20036;-73
2023/12/17 02:13:07;;;;;;;8.52;4.30;;;2.90;99.90;;;;;;4993245;28;20050;-73
2023/12/17 02:15:33;;;;;;;9.02;4.68;;;2.80;99.90;;;;;;4970694;28;20025;-73
2023/12/17 02:17:59;;;;;;;6.93;3.42;;;2.80;99.90;;;;;;4993708;28;20039;-73
2023/12/17 02:20:24;;;;;;;8.95;5.25;;;2.80;99.90;;;;;;4978062;28;20030;-73
2023/12/17 02:22:56;;;;;;;5.75;3.35;;;2.70;99.90;;;;;;4980994;28;20382;-73
2023/12/17 02:25:21;;;;;;;;;;;2.60;99.90;;;;;;4990926;28;20113;-73
2023/12/17 02:27:47;;;;;;;5.63;3.38;;;2.60;99.90;;;;;;4981304;28;20361;-73
2023/12/17 02:30:13;;;;;;;19.23;4.95;;;2.60;99.90;;;;;;4993257;28;20105;-73
2023/12/17 02:32:38;;;;;;;8.75;4.28;;;2.70;99.90;;;;;;4992434;28;20058;-73
2023/12/17 02:35:05;;;;;;;7.60;3.72;;;2.70;99.90;;;;;;4992877;28;20045;-73
2023/12/17 02:37:30;;;;;;;5.53;3.65;;;2.80;99.90;;;;;;4993383;28;20362;-73
2023/12/17 02:39:56;;;;;;;18.58;5.03;;;2.90;99.90;;;;;;4997233;28;20031;-73
2023/12/17 02:42:22;;;;;;;8.50;4.03;;;2.90;99.90;;;;;;4999987;28;20064;-73
2023/12/17 02:44:48;;;;;;;16.27;5.00;;;2.90;99.90;;;;;;4978082;28;20030;-73
2023/12/17 02:47:14;;;;;;;10.55;3.20;;;2.90;99.90;;;;;;4990228;28;20681;-73
2023/12/17 02:49:41;;;;;;;8.13;4.95;;;2.90;99.90;;;;;;4972269;28;20058;-73
2023/12/17 02:52:07;;;;;;;4.47;2.92;;;2.90;99.90;;;;;;4990572;28;20034;-73
2023/12/17 02:54:33;;;;;;;5.38;4.57;;;2.80;99.90;;;;;;4965377;28;20027;-74
2023/12/17 02:56:58;;;;;;;9.05;5.00;;;2.80;99.90;;;;;;4971724;28;20037;-73
2023/12/17 02:59:24;;;;;;;7.60;4.57;;;2.70;99.90;;;;;;4961082;28;20034;-74
2023/12/17 03:01:51;;;;;;;5.88;3.80;;;2.70;99.90;;;;;;4972529;28;20035;-74
2023/12/17 03:04:17;;;;;;;13.20;3.83;;;2.70;99.90;;;;;;4989663;28;20573;-71
2023/12/17 03:06:46;;;;;;;7.38;3.97;;;2.80;99.90;;;;;;4988415;28;20510;-72
2023/12/17 03:09:11;;;;;;;13.60;6.38;;;2.80;99.90;;;;;;4973958;28;20041;-72
2023/12/17 03:11:37;;;;;;;14.23;5.13;;;2.80;99.90;;;;;;4979012;28;20026;-73
2023/12/17 03:14:03;;;;;;;10.10;5.45;;;2.80;99.90;;;;;;4988583;28;20117;-72
2023/12/17 03:16:29;;;;;;;11.55;6.43;;;2.80;99.90;;;;;;4992268;28;20037;-73
2023/12/17 03:18:55;;;;;;;13.70;6.28;;;2.80;99.90;;;;;;4992252;28;20508;-73
2023/12/17 03:21:23;;;;;;;12.05;6.18;;;2.80;99.90;;;;;;4990546;28;20034;-72
2023/12/17 03:23:50;;;;;;;10.10;5.32;;;2.80;99.90;;;;;;4974907;28;20465;-72
2023/12/17 03:26:16;;;;;;;9.85;6.35;;;2.80;99.90;;;;;;4988228;28;20411;-72
2023/12/17 03:28:42;;;;;;;14.65;5.93;;;2.80;99.90;;;;;;4971264;28;20035;-72
2023/12/17 03:31:11;;;;;;;15.15;4.88;;;2.80;99.90;;;;;;4985798;28;20031;-72
2023/12/17 03:33:36;;;;;;;9.18;4.15;;;2.70;99.90;;;;;;4974839;28;20391;-72
2023/12/17 03:36:02;;;;;;;6.60;4.18;;;2.70;99.90;;;;;;4992493;28;20037;-72
2023/12/17 03:38:28;;;;;;;11.00;6.25;;;2.60;99.90;;;;;;4992053;28;20104;-72
2023/12/17 03:40:54;;;;;;;9.80;5.70;;;2.60;99.90;;;;;;4983011;28;20074;-72
2023/12/17 03:43:19;;;;;;;5.18;3.05;;;2.60;99.90;;;;;;4986634;28;20121;-72
2023/12/17 03:45:45;;;;;;;10.50;5.70;;;2.60;99.90;;;;;;4989337;28;20084;-73
2023/12/17 03:48:11;;;;;;;13.82;4.60;;;2.60;99.90;;;;;;4991889;28;20096;-73
2023/12/17 03:50:37;;;;;;;8.13;5.30;;;2.60;99.90;;;;;;4992045;28;20106;-72
2023/12/17 03:53:10;;;;;;;10.02;5.88;;;2.50;99.90;;;;;;4982325;28;20034;-73
2023/12/17 03:55:38;;;;;;;13.77;4.88;;;2.50;99.90;;;;;;4991968;28;20037;-72
2023/12/17 03:58:04;;;;;;;19.73;5.78;;;2.50;99.90;;;;;;5006908;28;20089;-72
2023/12/17 04:00:30;;;;;;;8.43;4.32;;;2.50;99.90;;;;;;4989788;28;20033;-73
2023/12/17 04:02:56;;;;;;;11.05;4.88;;;2.50;99.90;;;;;;4975221;28;20035;-73
2023/12/17 04:05:25;;;;;;;7.70;4.68;;;2.50;99.90;;;;;;4998090;28;20113;-73
2023/12/17 04:07:52;;;;;;;11.48;4.38;;;2.50;99.90;;;;;;4978152;28;20062;-73
2023/12/17 04:10:18;;;;;;;11.68;4.93;;;2.50;99.90;;;;;;4974311;28;20035;-74
2023/12/17 04:12:43;;;;;;;7.57;4.05;;;2.50;99.90;;;;;;4985544;28;20082;-73
2023/12/17 04:15:09;;;;;;;8.82;4.20;;;2.50;99.90;;;;;;4988881;28;20557;-73
2023/12/17 04:17:35;;;;;;;7.35;4.55;;;2.50;99.90;;;;;;4984077;28;20022;-72
2023/12/17 04:20:01;;;;;;;10.50;4.10;;;2.50;99.90;;;;;;4974403;28;20042;-73
2023/12/17 04:22:26;;;;;;;9.75;4.57;;;2.40;99.90;;;;;;4991257;28;20105;-73
2023/12/17 04:24:52;;;;;;;9.23;3.95;;;2.40;99.90;;;;;;4990108;28;20510;-73
2023/12/17 04:27:18;;;;;;;8.27;4.05;;;2.40;99.90;;;;;;4982747;28;20031;-73
2023/12/17 04:29:44;;;;;;;10.20;4.45;;;2.40;99.90;;;;;;4971256;28;20038;-73
2023/12/17 04:32:11;;;;;;;7.50;4.80;;;2.40;99.90;;;;;;4992086;28;20037;-72
2023/12/17 04:34:37;;;;;;;10.48;4.93;;;2.40;99.90;;;;;;4995230;28;20026;-73
2023/12/17 04:37:03;;;;;;;15.07;5.22;;;2.30;99.90;;;;;;5003005;28;20038;-73
2023/12/17 04:39:28;;;;;;;7.10;4.32;;;2.30;99.90;;;;;;4995529;28;20030;-72
2023/12/17 04:41:54;;;;;;;7.13;4.75;;;2.40;99.90;;;;;;4995873;28;20026;-73
2023/12/17 04:44:20;;;;;;;12.00;5.15;;;2.40;99.90;;;;;;4993819;28;20169;-73
2023/12/17 04:46:46;;;;;;;15.55;3.67;;;2.40;99.90;;;;;;4991413;28;20130;-73
2023/12/17 04:49:12;;;;;;;8.00;5.15;;;2.30;99.90;;;;;;4992731;28;20041;-73
2023/12/17 04:51:37;;;;;;;5.18;3.65;;;2.40;99.90;;;;;;4995743;28;20441;-73
2023/12/17 04:54:03;;;;;;;5.32;2.83;;;2.30;99.90;;;;;;4994786;28;20053;-72
2023/12/17 04:56:29;;;;;;;12.63;4.53;;;2.30;99.90;;;;;;4986038;28;20058;-73
2023/12/17 04:58:55;;;;;;;8.15;3.85;;;2.20;99.90;;;;;;4977140;28;20035;-73
2023/12/17 05:01:20;;;;;;;6.25;3.90;;;2.20;99.90;;;;;;4992960;28;20034;-73
2023/12/17 05:03:46;;;;;;;13.77;3.97;;;2.10;99.90;;;;;;4994271;28;20030;-73
2023/12/17 05:06:12;;;;;;;8.88;4.15;;;2.10;99.90;;;;;;4995159;28;20030;-73
2023/12/17 05:08:37;;;;;;;4.82;2.92;;;2.10;99.90;;;;;;4994947;28;20118;-73
2023/12/17 05:11:03;;;;;;;8.40;4.03;;;2.10;99.90;;;;;;4974444;28;20556;-74
2023/12/17 05:13:29;;;;;;;6.43;3.45;;;2.10;99.90;;;;;;4984915;28;20391;-73
2023/12/17 05:15:55;;;;;;;4.18;2.55;;;2.10;99.90;;;;;;4993935;28;20037;-73
2023/12/17 05:18:20;;;;;;;3.60;2.40;;;2.10;99.90;;;;;;4994609;28;20122;-73
2023/12/17 05:20:48;;;;;;;8.02;3.28;;;2.10;99.90;;;;;;4980214;28;20041;-73
2023/12/17 05:23:14;;;;;;;6.18;3.30;;;2.10;99.90;;;;;;4994414;28;20060;-73
2023/12/17 05:25:40;;;;;;;4.43;2.83;;;2.10;99.90;;;;;;4987477;28;20074;-73
2023/12/17 05:28:09;;;;;;;3.55;1.73;;;2.10;99.90;;;;;;4985539;28;20052;-73
2023/12/17 05:30:37;;;;;;;4.10;3.25;;;2.20;99.90;;;;;;4967281;28;20070;-73
2023/12/17 05:33:03;;;;;;;7.95;4.15;;;2.20;99.90;;;;;;4979708;28;20059;-73
2023/12/17 05:35:29;;;;;;;3.05;2.55;;;2.10;99.90;;;;;;4977467;28;20517;-73
2023/12/17 05:37:54;;;;;;;7.07;3.13;;;2.20;99.90;;;;;;4978379;28;20026;-72
2023/12/17 05:40:20;;;;;;;2.58;2.05;;;2.10;99.90;;;;;;4975623;28;20034;-73
2023/12/17 05:42:46;;;;;;;9.75;3.67;;;2.10;99.90;;;;;;4977183;28;20729;-73
2023/12/17 05:45:12;;;;;;;6.88;2.53;;;2.10;99.90;;;;;;4992898;28;20034;-73
2023/12/17 05:47:39;;;;;;;7.95;3.90;;;2.10;99.90;;;;;;4989952;28;20106;-73
2023/12/17 05:50:07;;;;;;;4.72;2.75;;;2.10;99.90;;;;;;4973074;28;20038;-73
2023/12/17 05:52:34;;;;;;;10.65;4.03;;;2.00;99.90;;;;;;4993485;28;20414;-73
2023/12/17 05:55:00;;;;;;;9.25;3.80;;;2.10;99.90;;;;;;4974751;28;20093;-73
2023/12/17 05:57:25;;;;;;;5.97;3.88;;;2.00;99.90;;;;;;4994182;28;20441;-73
2023/12/17 05:59:51;;;;;;;5.25;2.88;;;2.00;99.90;;;;;;4994079;28;20035;-73
2023/12/17 06:02:17;;;;;;;6.05;3.65;;;2.00;99.90;;;;;;4993021;28;20027;-74
2023/12/17 06:04:43;;;;;;;5.50;2.78;;;2.00;99.90;;;;;;4993307;28;20038;-73
2023/12/17 06:07:08;;;;;;;5.45;3.40;;;2.00;99.90;;;;;;5009031;28;20034;-72
2023/12/17 06:09:34;;;;;;;5.30;3.20;;;2.10;99.90;;;;;;4993780;28;20044;-73
2023/12/17 06:12:00;;;;;;;11.70;4.30;;;2.10;99.90;;;;;;4994235;28;20463;-72
2023/12/17 06:14:26;;;;;;;5.57;2.83;;;2.10;99.90;;;;;;4993049;28;20041;-73
2023/12/17 06:16:51;;;;;;;5.38;2.63;;;2.00;99.90;;;;;;4977807;28;20078;-72
2023/12/17 06:19:17;;;;;;;3.95;2.60;;;2.10;99.90;;;;;;4991566;28;20034;-73
2023/12/17 06:21:43;;;;;;;18.88;2.88;;;2.10;99.90;;;;;;4988229;28;20038;-73
2023/12/17 06:24:09;;;;;;;6.50;3.55;;;2.00;99.90;;;;;;4993352;28;20038;-72
2023/12/17 06:26:37;;;;;;;7.22;2.70;;;2.00;99.90;;;;;;4984461;28;20030;-72
2023/12/17 06:29:03;;;;;;;7.30;4.50;;;2.00;99.90;;;;;;4998052;28;20038;-73
2023/12/17 06:31:30;;;;;;;8.35;3.53;;;1.90;99.90;;;;;;4983697;28;20035;-71
2023/12/17 06:33:56;;;;;;;9.95;3.47;;;1.80;99.90;;;;;;4965956;28;20039;-72
2023/12/17 06:36:22;;;;;;;6.72;4.70;;;1.80;99.90;;;;;;4992577;28;20058;-72
2023/12/17 06:38:49;;;;;;;7.63;3.63;;;1.80;99.90;;;;;;4992279;28;20030;-72
2023/12/17 06:41:14;;;;;;;4.65;3.92;;;1.80;99.90;;;;;;4974211;28;20035;-73
2023/12/17 06:43:40;;;;;;;4.25;2.53;;;1.80;99.90;;;;;;4976265;28;20046;-72
2023/12/17 06:46:07;;;;;;;7.20;4.22;;;1.80;99.90;;;;;;4975369;28;20038;-72
2023/12/17 06:48:34;;;;;;;11.13;5.20;;;1.80;99.90;;;;;;4985393;28;20022;-72
2023/12/17 06:51:04;;;;;;;8.52;2.30;;;1.80;99.90;;;;;;4986988;28;20034;-72
2023/12/17 06:53:30;;;;;;;14.43;3.53;;;1.80;99.90;;;;;;4975364;28;20084;-71
2023/12/17 06:55:56;;;;;;;6.90;4.07;;;1.90;99.90;;;;;;4975797;28;20037;-73
2023/12/17 06:58:22;;;;;;;10.27;4.13;;;1.90;99.90;;;;;;4989728;28;20097;-72
2023/12/17 07:00:48;;;;;;;5.68;3.75;;;1.90;99.90;;;;;;4975611;28;20046;-71
2023/12/17 07:03:18;;;;;;;6.43;2.70;;;1.90;99.90;;;;;;4980855;28;20043;-72
2023/12/17 07:05:44;;;;;;;7.80;4.43;;;1.80;99.90;;;;;;4963709;28;20038;-71
2023/12/17 07:08:10;;;;;;;3.38;2.75;;;1.90;99.90;;;;;;4989424;28;20106;-75
2023/12/17 07:10:36;;;;;;;12.88;3.90;;;1.90;99.90;;;;;;4993027;28;20030;-71
2023/12/17 07:13:03;;;;;;;4.28;3.17;;;1.80;99.90;;;;;;4999450;28;20048;-70
2023/12/17 07:15:29;;;;;;;8.52;3.67;;;1.80;99.90;;;;;;4969288;28;20030;-71
2023/12/17 07:17:55;;;;;;;8.00;3.80;;;1.80;99.90;;;;;;4992920;28;20053;-71
2023/12/17 07:20:21;;;;;;;11.93;4.07;;;1.90;99.90;;;;;;4992474;28;20030;-71
2023/12/17 07:22:48;;;;;;;6.28;3.30;;;1.90;99.90;;;;;;4985929;28;20035;-69
2023/12/17 07:25:15;;;;;;;6.85;3.88;;;1.90;99.90;;;;;;4972171;28;20022;-69
2023/12/17 07:27:41;;;;;;;6.78;4.78;;;1.90;99.90;;;;;;4989212;28;20109;-71
2023/12/17 07:30:08;;;;;;;6.45;3.70;;;1.90;99.90;;;;;;4990356;28;20046;-70
2023/12/17 07:32:33;;;;;;;7.97;4.10;;;1.80;99.90;;;;;;4991440;28;20104;-69
2023/12/17 07:34:59;;;;;;;9.55;4.47;;;1.80;99.90;;;;;;4964868;28;20122;-70
2023/12/17 07:37:25;;;;;;;8.02;4.22;;;1.80;99.90;;;;;;4992113;28;20026;-71
2023/12/17 07:39:50;;;;;;;6.40;3.20;;;1.90;99.90;;;;;;4988986;28;20709;-70
2023/12/17 07:42:16;;;;;;;8.10;4.35;;;2.00;99.90;;;;;;4992823;28;20033;-70
2023/12/17 07:44:42;;;;;;;7.45;4.45;;;2.00;99.90;;;;;;4967296;28;20034;-70
2023/12/17 07:47:10;;;;;;;3.97;2.60;;;1.90;99.90;;;;;;4992989;28;20030;-70
2023/12/17 07:49:37;;;;;;;3.80;2.83;;;2.00;99.90;;;;;;4986956;28;20801;-70
2023/12/17 07:52:04;;;;;;;12.63;5.22;;;2.00;99.90;;;;;;4988857;28;20042;-70
2023/12/17 07:54:29;;;;;;;10.93;5.43;;;2.10;99.90;;;;;;4967835;28;20026;-71
2023/12/17 07:56:55;;;;;;;7.45;3.88;;;2.00;99.90;;;;;;4991290;28;20517;-71
2023/12/17 07:59:21;;;;;;;9.10;4.25;;;2.10;99.90;;;;;;4992055;28;20034;-71
2023/12/17 08:01:48;;;;;;;16.38;4.85;;;2.20;99.90;;;;;;4992145;28;20129;-71
2023/12/17 08:04:13;;;;;;;6.80;4.85;;;2.20;99.90;;;;;;4991759;28;20101;-69
2023/12/17 08:06:39;;;;;;;9.52;4.82;;;2.20;99.90;;;;;;4981730;28;20133;-69
2023/12/17 08:09:05;;;;;;;5.45;2.95;;;2.30;99.90;;;;;;4990289;28;20030;-69
2023/12/17 08:11:31;;;;;;;8.90;5.30;;;2.30;99.90;;;;;;4983819;28;20053;-70
2023/12/17 08:13:56;;;;;;;7.30;4.70;;;2.30;99.90;;;;;;4992508;28;20057;-71
2023/12/17 08:16:22;;;;;;;7.68;3.90;;;2.30;99.90;;;;;;4992298;28;20506;-69
2023/12/17 08:18:48;;;;;;;9.70;4.85;;;2.30;99.90;;;;;;4992203;28;20057;-70
2023/12/17 08:21:13;;;;;;;13.95;4.40;;;2.30;99.90;;;;;;4992525;28;20489;-70
2023/12/17 08:23:39;;;;;;;6.13;4.40;;;2.40;99.90;;;;;;4990972;28;20034;-70
2023/12/17 08:26:05;;;;;;;10.40;5.80;;;2.50;99.90;;;;;;4991711;28;20333;-70
2023/12/17 08:28:31;;;;;;;9.65;4.63;;;2.50;99.90;;;;;;4989871;28;20022;-70
2023/12/17 08:30:56;;;;;;;14.85;5.97;;;2.60;99.90;;;;;;4975621;28;20026;-70
2023/12/17 08:33:22;;;;;;;6.75;4.30;;;2.70;99.90;;;;;;4990090;28;20041;-70
2023/12/17 08:35:48;;;;;;;9.77;6.03;;;2.60;99.90;;;;;;4982313;28;20034;-70
2023/12/17 08:38:14;;;;;;;10.65;4.80;;;2.70;99.90;;;;;;4991586;28;20037;-71
2023/12/17 08:40:40;;;;;;;6.68;5.00;;;2.70;99.90;;;;;;4992152;28;20042;-70
2023/12/17 08:43:07;;;;;;;12.95;5.50;;;2.80;99.90;;;;;;4972969;28;20026;-70
2023/12/17 08:45:34;;;;;;;12.82;5.53;;;2.80;99.90;;;;;;4977080;28;20073;-70
2023/12/17 08:48:01;;;;;;;11.77;6.00;;;2.80;99.90;;;;;;4969397;28;20113;-72
2023/12/17 08:50:27;;;;;;;8.00;5.55;;;2.90;99.90;;;;;;4989878;28;20061;-71
2023/12/17 08:52:53;;;;;;;8.65;4.80;;;2.90;99.90;;;;;;4991399;28;20058;-71
2023/12/17 08:55:22;;;;;;;10.23;4.28;;;2.90;99.90;;;;;;4988902;28;20562;-70
2023/12/17 08:57:48;;;;;;;12.35;5.75;;;3.00;99.90;;;;;;4972859;28;20580;-69
2023/12/17 09:00:17;;;;;;;7.55;4.88;;;3.00;99.90;;;;;;4991227;28;20062;-68
2023/12/17 09:02:43;;;;;;;12.25;4.93;;;3.00;99.90;;;;;;4991397;28;20065;-71
2023/12/17 09:05:09;;;;;;;8.15;4.95;;;3.00;99.90;;;;;;4973903;28;20495;-69
2023/12/17 09:07:35;;;;;;;10.90;5.03;;;3.10;99.90;;;;;;4991332;28;20646;-69
2023/12/17 09:10:01;;;;;;;9.23;4.18;;;3.00;99.90;;;;;;4998604;28;20050;-69
2023/12/17 09:12:27;;;;;;;5.57;3.92;;;3.00;99.90;;;;;;4991008;28;20553;-70
2023/12/17 09:14:55;;;;;;;8.77;4.10;;;3.10;99.90;;;;;;4992436;28;20393;-70
2023/12/17 09:17:21;;;;;;;5.43;3.53;;;3.10;99.90;;;;;;4994717;28;20030;-70
2023/12/17 09:19:47;;;;;;;10.45;4.63;;;3.20;99.90;;;;;;4995240;28;20114;-70
2023/12/17 09:22:13;;;;;;;9.40;5.43;;;3.20;99.90;;;;;;4989960;28;20061;-70
2023/12/17 09:24:40;;;;;;;11.88;4.28;;;3.30;99.90;;;;;;4998405;28;20490;-70
2023/12/17 09:27:06;;;;;;;8.70;4.13;;;3.30;99.90;;;;;;4942889;28;20487;-70
2023/12/17 09:29:32;;;;;;;9.25;4.13;;;3.40;99.90;;;;;;4961227;28;20081;-70
2023/12/17 09:31:58;;;;;;;7.25;5.05;;;3.60;99.90;;;;;;4972680;28;20074;-70
2023/12/17 09:34:24;;;;;;;11.85;4.50;;;3.70;99.90;;;;;;4985595;28;20042;-69
2023/12/17 09:36:50;;;;;;;9.20;5.43;;;3.60;99.90;;;;;;4977225;28;20109;-70
2023/12/17 09:39:15;;;;;;;8.43;5.10;;;3.80;99.90;;;;;;4994835;28;20541;-69
2023/12/17 09:41:43;;;;;;;5.65;2.97;;;4.00;99.90;;;;;;4977213;28;20088;-70
2023/12/17 09:44:09;;;;;;;5.63;3.17;;;4.00;99.90;;;;;;4993017;28;20081;-70
2023/12/17 09:46:35;;;;;;;6.88;4.65;;;4.00;99.90;;;;;;4994280;28;20061;-70
2023/12/17 09:49:02;;;;;;;8.52;4.45;;;4.20;99.90;;;;;;4961299;28;20041;-69
2023/12/17 09:51:28;;;;;;;7.88;4.32;;;4.70;99.90;;;;;;4994416;28;20014;-70
2023/12/17 09:53:56;;;;;;;10.60;4.60;;;5.40;99.90;;;;;;4976876;28;20062;-70
2023/12/17 09:56:22;;;;;;;10.38;4.63;;;6.20;99.90;;;;;;4976562;28;20117;-69
2023/12/17 09:58:48;;;;;;;8.85;4.22;;;8.40;99.90;;;;;;4976786;28;20141;-69
2023/12/17 10:01:14;;;;;;;11.10;5.13;;;9.20;99.90;;;;;;4976658;28;20150;-70
2023/12/17 10:03:40;;;;;;;8.18;4.38;;;9.90;99.90;;;;;;4993502;28;20089;-69
2023/12/17 10:06:06;;;;;;;16.55;7.43;;;9.10;99.90;;;;;;4976879;28;20378;-69
2023/12/17 10:08:33;;;;;;;13.88;3.97;;;10.70;99.90;;;;;;4967623;28;20035;-69
2023/12/17 10:11:00;;;;;;;5.93;3.50;;;8.40;99.90;;;;;;4957373;28;20030;-69
2023/12/17 10:13:26;;;;;;;7.13;2.80;;;7.60;99.90;;;;;;4992502;28;20045;-68
2023/12/17 10:15:54;;;;;;;7.28;4.15;;;8.10;99.90;;;;;;4976626;28;20026;-69
2023/12/17 10:18:22;;;;;;;10.82;4.05;;;7.00;99.90;;;;;;4993706;28;20045;-70
2023/12/17 10:20:48;;;;;;;7.35;4.35;;;6.70;99.90;;;;;;4993832;28;20041;-69
2023/12/17 10:23:15;;;;;;;6.55;3.25;;;6.60;99.90;;;;;;4971503;28;20057;-69
2023/12/17 10:25:42;;;;;;;9.43;4.18;;;6.90;99.90;;;;;;4976710;28;20089;-70
2023/12/17 10:28:13;;;;;;;18.60;4.93;;;6.60;99.90;;;;;;4976099;28;20398;-69
2023/12/17 10:30:41;;;;;;;12.60;5.25;;;7.10;99.90;;;;;;4975840;28;20389;-69
2023/12/17 10:33:10;;;;;;;11.38;4.30;;;7.50;99.90;;;;;;4970259;28;20046;-68
2023/12/17 10:35:37;;;;;;;7.65;3.28;;;7.50;99.90;;;;;;4986407;28;20382;-69
2023/12/17 10:38:07;;;;;;;8.68;3.75;;;7.30;99.90;;;;;;4960171;28;20026;-68
2023/12/17 10:40:35;;;;;;;6.05;4.38;;;7.90;99.90;;;;;;4993504;28;20029;-68
2023/12/17 10:43:04;;;;;;;7.90;4.75;;;8.00;99.90;;;;;;4974688;28;20022;-69
2023/12/17 10:45:31;;;;;;;9.88;4.63;;;8.50;99.90;;;;;;4975161;28;20026;-69
2023/12/17 10:47:57;;;;;;;10.82;3.90;;;8.80;99.90;;;;;;4974682;28;20030;-69
2023/12/17 10:50:25;;;;;;;23.67;9.55;;;8.70;99.90;;;;;;4975899;28;20026;-69
2023/12/17 10:52:51;;;;;;;10.45;3.92;;;9.30;99.90;;;;;;4975648;28;20030;-68
2023/12/17 10:55:18;;;;;;;13.88;5.43;;;9.00;99.90;;;;;;4984803;28;20025;-68
2023/12/17 10:57:59;;;;;;;6.60;3.08;;;8.90;99.90;;;;;;4975015;28;20034;-69
2023/12/17 11:00:29;;;;;;;;;;;8.70;99.90;;;;;;4992696;28;20030;-68
2023/12/17 11:02:59;;;;;;;7.32;3.53;;;9.00;99.90;;;;;;4978293;28;19913;-68
2023/12/17 11:05:25;;;;;;;9.07;4.03;;;8.80;99.90;;;;;;4975773;28;20513;-68
2023/12/17 11:07:51;;;;;;;7.55;4.05;;;10.70;99.90;;;;;;4975866;28;20042;-68
2023/12/17 11:10:17;;;;;;;9.27;3.47;;;10.20;99.90;;;;;;4992680;28;20470;-68
2023/12/17 11:12:47;;;;;;;5.13;4.07;;;11.30;99.90;;;;;;4946931;28;20129;-68
2023/12/17 11:15:13;;;;;;;7.10;2.97;;;10.90;99.90;;;;;;4972776;28;20035;-68
2023/12/17 11:17:40;;;;;;;6.68;3.40;;;10.70;99.90;;;;;;4992573;28;20165;-68
2023/12/17 11:20:06;;;;;;;12.30;4.35;;;10.50;99.90;;;;;;4991554;28;20038;-68
2023/12/17 11:22:37;;;;;;;12.77;3.63;;;9.80;99.90;;;;;;4975095;28;20038;-68
2023/12/17 11:25:11;;;;;;;6.45;3.30;;;11.60;99.90;;;;;;4992609;28;20037;-68
2023/12/17 11:27:39;;;;;;;7.53;3.30;;;12.20;99.60;;;;;;4969987;28;20507;-70
2023/12/17 11:30:32;;;;;;;7.25;3.50;;;12.40;98.30;;;;;;4988270;28;20054;-70
2023/12/17 11:33:02;;;;;;;10.35;3.83;;;12.60;97.60;;;;;;4964595;28;20045;-68
2023/12/17 11:35:30;;;;;;;10.45;3.67;;;11.20;99.90;;;;;;4975464;28;20067;-68
2023/12/17 11:37:56;;;;;;;6.65;3.72;;;11.50;99.90;;;;;;4989362;28;20036;-68
2023/12/17 11:40:22;;;;;;;6.95;2.95;;;12.10;99.90;;;;;;4971655;28;20034;-69
2023/12/17 11:42:59;;;;;;;5.82;2.63;;;11.40;99.80;;;;;;4992171;28;20117;-69
2023/12/17 11:45:44;;;;;;;8.70;3.90;;;10.40;99.90;;;;;;4984978;28;20038;-70
2023/12/17 11:48:17;;;;;;;7.65;3.42;;;11.40;99.90;;;;;;4990935;28;20116;-70
2023/12/17 11:50:58;;;;;;;7.07;3.25;;;12.30;99.90;;;;;;4991819;28;20031;-69
2023/12/17 11:53:27;;;;;;;5.35;2.53;;;11.50;99.90;;;;;;4991593;28;20022;-69
2023/12/17 11:56:01;;;;;;;11.60;3.80;;;10.60;99.90;;;;;;4969220;28;20041;-72
2023/12/17 11:58:29;;;;;;;5.93;3.25;;;13.40;99.90;;;;;;4989351;28;20038;-72
2023/12/17 12:01:15;;;;;;;7.15;3.10;;;12.30;98.70;;;;;;4968961;28;20031;-72
2023/12/17 12:03:41;;;;;;;6.78;3.55;;;11.60;99.90;;;;;;4980465;28;20102;-72
2023/12/17 12:06:11;;;;;;;5.90;3.47;;;10.40;99.90;;;;;;4991119;28;20041;-72
2023/12/17 12:08:42;;;;;;;35.45;3.80;;;11.30;99.90;;;;;;4958393;28;20041;-72
2023/12/17 12:11:13;;;;;;;7.47;3.50;;;11.90;99.90;;;;;;4991774;28;20061;-70
2023/12/17 12:13:42;;;;;;;;;;;11.10;99.90;;;;;;4985108;28;20045;-71
2023/12/17 12:16:12;;;;;;;5.03;2.95;;;11.00;99.90;;;;;;4974488;28;20428;-71
2023/12/17 12:18:38;;;;;;;7.80;3.28;;;11.80;99.90;;;;;;4988275;28;20730;-70
2023/12/17 12:21:18;;;;;;;6.93;3.55;;;10.80;99.90;;;;;;4967888;28;20035;-71
2023/12/17 12:23:53;;;;;;;6.95;3.58;;;11.90;99.90;;;;;;4967930;28;20560;-70
2023/12/17 12:26:19;;;;;;;7.75;3.20;;;12.40;99.80;;;;;;4991474;28;20039;-71
2023/12/17 12:28:50;;;;;;;9.70;3.95;;;11.80;99.90;;;;;;4974330;28;20132;-71
2023/12/17 12:31:16;;;;;;;7.32;3.58;;;11.30;99.90;;;;;;4948320;28;20038;-70
2023/12/17 12:34:08;;;;;;;11.88;3.45;;;11.10;99.90;;;;;;4991187;28;20573;-71
2023/12/17 12:36:48;;;;;;;6.30;3.10;;;10.50;99.90;;;;;;4966533;28;20034;-70
2023/12/17 12:39:18;;;;;;;11.15;3.67;;;9.90;99.90;;;;;;4991315;28;20045;-70
2023/12/17 12:41:45;;;;;;;8.52;4.18;;;10.80;99.90;;;;;;4986639;28;20039;-73
2023/12/17 12:44:13;;;;;;;7.65;3.60;;;10.60;99.90;;;;;;4968112;28;20045;-71
2023/12/17 12:46:43;;;;;;;6.10;3.42;;;10.20;99.90;;;;;;4965667;28;20070;-70
2023/12/17 12:49:09;;;;;;;8.18;3.85;;;10.00;99.90;;;;;;4988118;28;20038;-71
2023/12/17 12:51:35;;;;;;;11.85;3.80;;;9.90;99.90;;;;;;4970345;28;20121;-71